sensor_id;sensor_type;location;lat;lon;timestamp;pressure;altitude;pressure_sealevel;temperature
64600;BMP280;6553;48.412;9.514;2023-02-12T00:02:19;71681.34;;;20.07
64600;BMP280;6553;48.412;9.514;2023-02-12T00:04:46;71680.94;;;20.04
64600;BMP280;6553;48.412;9.514;2023-02-12T00:07:12;71685.81;;;20.06
64600;BMP280;6553;48.412;9.514;2023-02-12T00:09:38;71686.91;;;20.07
64600;BMP280;6553;48.412;9.514;2023-02-12T00:12:04;71685.28;;;20.05
64600;BMP280;6553;48.412;9.514;2023-02-12T00:14:29;71680.41;;;20.03
64600;BMP280;6553;48.412;9.514;2023-02-12T00:16:55;71680.41;;;20.03
64600;BMP280;6553;48.412;9.514;2023-02-12T00:19:21;71685.00;;;20.00
64600;BMP280;6553;48.412;9.514;2023-02-12T00:21:47;71685.81;;;20.06
64600;BMP280;6553;48.412;9.514;2023-02-12T00:24:13;71681.47;;;20.04
64600;BMP280;6553;48.412;9.514;2023-02-12T00:26:38;71681.47;;;20.04
64600;BMP280;6553;48.412;9.514;2023-02-12T00:29:05;71686.38;;;20.06
64600;BMP280;6553;48.412;9.514;2023-02-12T00:31:31;71680.94;;;20.04
64600;BMP280;6553;48.412;9.514;2023-02-12T00:33:58;71685.28;;;20.05
64600;BMP280;6553;48.412;9.514;2023-02-12T00:36:27;71687.03;;;20.04
64600;BMP280;6553;48.412;9.514;2023-02-12T00:38:55;71669.69;;;19.96
64600;BMP280;6553;48.412;9.514;2023-02-12T00:41:24;71683.72;;;20.04
64600;BMP280;6553;48.412;9.514;2023-02-12T00:43:50;71682.00;;;20.05
64600;BMP280;6553;48.412;9.514;2023-02-12T00:46:17;71682.00;;;20.05
64600;BMP280;6553;48.412;9.514;2023-02-12T00:48:43;71682.00;;;20.05
64600;BMP280;6553;48.412;9.514;2023-02-12T00:51:10;71682.66;;;20.03
64600;BMP280;6553;48.412;9.514;2023-02-12T00:53:36;71681.47;;;20.04
64600;BMP280;6553;48.412;9.514;2023-02-12T00:56:03;71679.47;;;20.00
64600;BMP280;6553;48.412;9.514;2023-02-12T00:58:29;71678.28;;;20.01
64600;BMP280;6553;48.412;9.514;2023-02-12T01:00:54;71682.09;;;20.02
64600;BMP280;6553;48.412;9.514;2023-02-12T01:03:22;71681.03;;;20.01
64600;BMP280;6553;48.412;9.514;2023-02-12T01:05:48;71668.19;;;19.92
64600;BMP280;6553;48.412;9.514;2023-02-12T01:08:15;71684.47;;;19.99
64600;BMP280;6553;48.412;9.514;2023-02-12T01:10:43;71684.47;;;19.99
64600;BMP280;6553;48.412;9.514;2023-02-12T01:13:13;71674.47;;;20.00
64600;BMP280;6553;48.412;9.514;2023-02-12T01:15:40;71682.09;;;20.02
64600;BMP280;6553;48.412;9.514;2023-02-12T01:18:06;71676.56;;;20.02
64600;BMP280;6553;48.412;9.514;2023-02-12T01:20:32;71681.56;;;20.02
64600;BMP280;6553;48.412;9.514;2023-02-12T01:22:58;71677.78;;;20.01
64600;BMP280;6553;48.412;9.514;2023-02-12T01:25:26;71682.09;;;20.02
64600;BMP280;6553;48.412;9.514;2023-02-12T01:27:54;71679.47;;;20.00
64600;BMP280;6553;48.412;9.514;2023-02-12T01:30:20;71682.78;;;20.00
64600;BMP280;6553;48.412;9.514;2023-02-12T01:32:50;71681.69;;;19.99
64600;BMP280;6553;48.412;9.514;2023-02-12T01:35:16;71678.28;;;20.01
64600;BMP280;6553;48.412;9.514;2023-02-12T01:37:42;71681.03;;;20.01
64600;BMP280;6553;48.412;9.514;2023-02-12T01:40:11;71676.69;;;20.00
64600;BMP280;6553;48.412;9.514;2023-02-12T01:42:39;71678.41;;;19.99
64600;BMP280;6553;48.412;9.514;2023-02-12T01:47:44;71678.94;;;19.99
64600;BMP280;6553;48.412;9.514;2023-02-12T01:50:14;71677.84;;;19.98
64600;BMP280;6553;48.412;9.514;2023-02-12T01:52:53;71676.16;;;19.99
64600;BMP280;6553;48.412;9.514;2023-02-12T01:55:21;71681.69;;;19.99
64600;BMP280;6553;48.412;9.514;2023-02-12T01:57:47;71676.16;;;19.99
64600;BMP280;6553;48.412;9.514;2023-02-12T02:00:22;71676.16;;;19.99
64600;BMP280;6553;48.412;9.514;2023-02-12T02:02:56;71678.41;;;19.99
64600;BMP280;6553;48.412;9.514;2023-02-12T02:05:41;71678.41;;;19.99
64600;BMP280;6553;48.412;9.514;2023-02-12T02:08:09;71672.97;;;19.96
64600;BMP280;6553;48.412;9.514;2023-02-12T02:10:35;71675.09;;;19.98
64600;BMP280;6553;48.412;9.514;2023-02-12T02:13:02;71672.31;;;19.98
64600;BMP280;6553;48.412;9.514;2023-02-12T02:15:50;71674.69;;;19.95
64600;BMP280;6553;48.412;9.514;2023-02-12T02:18:40;71670.72;;;19.97
64600;BMP280;6553;48.412;9.514;2023-02-12T02:27:39;71675.22;;;19.96
64600;BMP280;6553;48.412;9.514;2023-02-12T02:33:14;71672.97;;;19.96
64600;BMP280;6553;48.412;9.514;2023-02-12T02:41:49;71673.59;;;19.94
64600;BMP280;6553;48.412;9.514;2023-02-12T02:44:30;71676.81;;;19.97
64600;BMP280;6553;48.412;9.514;2023-02-12T02:47:02;71674.69;;;19.95
64600;BMP280;6553;48.412;9.514;2023-02-12T02:49:47;71671.91;;;19.95
64600;BMP280;6553;48.412;9.514;2023-02-12T02:52:33;71677.44;;;19.95
64600;BMP280;6553;48.412;9.514;2023-02-12T02:55:05;71675.22;;;19.96
64600;BMP280;6553;48.412;9.514;2023-02-12T02:57:45;71672.56;;;19.93
64600;BMP280;6553;48.412;9.514;2023-02-12T03:00:23;71674.78;;;19.93
64600;BMP280;6553;48.412;9.514;2023-02-12T03:03:10;71678.63;;;19.94
64600;BMP280;6553;48.412;9.514;2023-02-12T03:05:44;71672.97;;;19.96
64600;BMP280;6553;48.412;9.514;2023-02-12T03:08:17;71671.38;;;19.95
64600;BMP280;6553;48.412;9.514;2023-02-12T03:10:55;71673.59;;;19.94
64600;BMP280;6553;48.412;9.514;2023-02-12T03:13:36;71668.72;;;19.92
64600;BMP280;6553;48.412;9.514;2023-02-12T03:16:17;71672.56;;;19.93
64600;BMP280;6553;48.412;9.514;2023-02-12T03:18:53;71673.09;;;19.94
64600;BMP280;6553;48.412;9.514;2023-02-12T03:21:29;71673.09;;;19.94
64600;BMP280;6553;48.412;9.514;2023-02-12T03:24:26;71673.59;;;19.94
64600;BMP280;6553;48.412;9.514;2023-02-12T03:27:30;71678.63;;;19.94
64600;BMP280;6553;48.412;9.514;2023-02-12T03:29:57;71664.88;;;19.91
64600;BMP280;6553;48.412;9.514;2023-02-12T03:35:31;71671.50;;;19.92
64600;BMP280;6553;48.412;9.514;2023-02-12T03:38:50;71674.16;;;19.95
64600;BMP280;6553;48.412;9.514;2023-02-12T03:41:37;71673.75;;;19.92
64600;BMP280;6553;48.412;9.514;2023-02-12T03:44:23;71673.19;;;19.91
64600;BMP280;6553;48.412;9.514;2023-02-12T03:47:14;71662.75;;;19.89
64600;BMP280;6553;48.412;9.514;2023-02-12T03:52:19;71669.38;;;19.90
64600;BMP280;6553;48.412;9.514;2023-02-12T03:54:45;71668.19;;;19.92
64600;BMP280;6553;48.412;9.514;2023-02-12T03:57:19;71669.78;;;19.93
64600;BMP280;6553;48.412;9.514;2023-02-12T03:59:46;71672.03;;;19.93
64600;BMP280;6553;48.412;9.514;2023-02-12T04:02:15;71668.19;;;19.92
64600;BMP280;6553;48.412;9.514;2023-02-12T04:04:44;71672.03;;;19.93
64600;BMP280;6553;48.412;9.514;2023-02-12T04:07:12;71669.38;;;19.90
64600;BMP280;6553;48.412;9.514;2023-02-12T04:09:38;71670.44;;;19.91
64600;BMP280;6553;48.412;9.514;2023-02-12T04:12:33;71671.06;;;19.89
64600;BMP280;6553;48.412;9.514;2023-02-12T04:15:20;71666.06;;;19.90
64600;BMP280;6553;48.412;9.514;2023-02-12T04:18:30;71669.25;;;19.93
64600;BMP280;6553;48.412;9.514;2023-02-12T04:24:16;71669.91;;;19.91
64600;BMP280;6553;48.412;9.514;2023-02-12T04:26:58;71672.16;;;19.90
64600;BMP280;6553;48.412;9.514;2023-02-12T04:29:50;71670.44;;;19.91
64600;BMP280;6553;48.412;9.514;2023-02-12T04:32:44;71670.44;;;19.91
64600;BMP280;6553;48.412;9.514;2023-02-12T04:35:42;71669.91;;;19.91
64600;BMP280;6553;48.412;9.514;2023-02-12T04:38:26;71666.72;;;19.88
64600;BMP280;6553;48.412;9.514;2023-02-12T04:40:53;71669.38;;;19.90
64600;BMP280;6553;48.412;9.514;2023-02-12T04:43:35;71668.84;;;19.90
64600;BMP280;6553;48.412;9.514;2023-02-12T04:46:07;71666.06;;;19.90
64600;BMP280;6553;48.412;9.514;2023-02-12T04:48:36;71664.34;;;19.91
64600;BMP280;6553;48.412;9.514;2023-02-12T04:51:09;71663.84;;;19.90
64600;BMP280;6553;48.412;9.514;2023-02-12T04:53:34;71669.91;;;19.91
64600;BMP280;6553;48.412;9.514;2023-02-12T04:56:00;71671.06;;;19.89
64600;BMP280;6553;48.412;9.514;2023-02-12T04:58:26;71669.38;;;19.90
64600;BMP280;6553;48.412;9.514;2023-02-12T05:00:52;71666.06;;;19.90
64600;BMP280;6553;48.412;9.514;2023-02-12T05:03:17;71668.84;;;19.90
64600;BMP280;6553;48.412;9.514;2023-02-12T05:05:43;71668.31;;;19.89
64600;BMP280;6553;48.412;9.514;2023-02-12T05:08:09;71671.06;;;19.89
64600;BMP280;6553;48.412;9.514;2023-02-12T05:10:34;71667.78;;;19.89
64600;BMP280;6553;48.412;9.514;2023-02-12T05:13:00;71667.25;;;19.88
64600;BMP280;6553;48.412;9.514;2023-02-12T05:15:26;71664.47;;;19.88
64600;BMP280;6553;48.412;9.514;2023-02-12T05:17:51;71666.19;;;19.87
64600;BMP280;6553;48.412;9.514;2023-02-12T05:20:17;71666.19;;;19.87
64600;BMP280;6553;48.412;9.514;2023-02-12T05:22:43;71667.78;;;19.89
64600;BMP280;6553;48.412;9.514;2023-02-12T05:25:09;71664.06;;;19.85
64600;BMP280;6553;48.412;9.514;2023-02-12T05:27:36;71664.47;;;19.88
64600;BMP280;6553;48.412;9.514;2023-02-12T05:30:02;71667.25;;;19.88
64600;BMP280;6553;48.412;9.514;2023-02-12T05:32:28;71666.19;;;19.87
64600;BMP280;6553;48.412;9.514;2023-02-12T05:34:53;71666.19;;;19.87
64600;BMP280;6553;48.412;9.514;2023-02-12T05:37:19;71673.31;;;19.89
64600;BMP280;6553;48.412;9.514;2023-02-12T05:39:48;71665.00;;;19.89
64600;BMP280;6553;48.412;9.514;2023-02-12T05:42:15;71670.03;;;19.88
64600;BMP280;6553;48.412;9.514;2023-02-12T05:44:40;71667.25;;;19.88
64600;BMP280;6553;48.412;9.514;2023-02-12T05:47:06;71666.72;;;19.88
64600;BMP280;6553;48.412;9.514;2023-02-12T05:49:32;71670.44;;;19.91
64600;BMP280;6553;48.412;9.514;2023-02-12T05:51:57;71666.19;;;19.87
64600;BMP280;6553;48.412;9.514;2023-02-12T05:54:23;71664.47;;;19.88
64600;BMP280;6553;48.412;9.514;2023-02-12T05:56:49;71666.72;;;19.88
64600;BMP280;6553;48.412;9.514;2023-02-12T05:59:20;71667.25;;;19.88
64600;BMP280;6553;48.412;9.514;2023-02-12T06:01:48;71670.03;;;19.88
64600;BMP280;6553;48.412;9.514;2023-02-12T06:04:26;71665.66;;;19.87
64600;BMP280;6553;48.412;9.514;2023-02-12T06:06:54;71660.63;;;19.87
64600;BMP280;6553;48.412;9.514;2023-02-12T06:09:21;71670.66;;;19.86
64600;BMP280;6553;48.412;9.514;2023-02-12T06:11:47;71667.78;;;19.89
64600;BMP280;6553;48.412;9.514;2023-02-12T06:14:16;71666.72;;;19.88
64600;BMP280;6553;48.412;9.514;2023-02-12T06:16:48;71662.91;;;19.87
64600;BMP280;6553;48.412;9.514;2023-02-12T06:19:15;71662.91;;;19.87
64600;BMP280;6553;48.412;9.514;2023-02-12T06:21:41;71659.59;;;19.86
64600;BMP280;6553;48.412;9.514;2023-02-12T06:24:07;71663.41;;;19.87
64600;BMP280;6553;48.412;9.514;2023-02-12T06:26:32;71665.66;;;19.87
64600;BMP280;6553;48.412;9.514;2023-02-12T06:29:00;71663.94;;;19.88
64600;BMP280;6553;48.412;9.514;2023-02-12T06:31:32;71663.41;;;19.87
64600;BMP280;6553;48.412;9.514;2023-02-12T06:34:03;71668.84;;;19.90
64600;BMP280;6553;48.412;9.514;2023-02-12T06:36:29;71661.19;;;19.88
64600;BMP280;6553;48.412;9.514;2023-02-12T06:38:55;71662.91;;;19.87
64600;BMP280;6553;48.412;9.514;2023-02-12T06:41:22;71663.94;;;19.88
64600;BMP280;6553;48.412;9.514;2023-02-12T06:43:48;71667.25;;;19.88
64600;BMP280;6553;48.412;9.514;2023-02-12T06:46:14;71664.06;;;19.85
64600;BMP280;6553;48.412;9.514;2023-02-12T06:48:40;71666.72;;;19.88
64600;BMP280;6553;48.412;9.514;2023-02-12T06:51:17;71668.44;;;19.87
64600;BMP280;6553;48.412;9.514;2023-02-12T06:53:46;71661.81;;;19.86
64600;BMP280;6553;48.412;9.514;2023-02-12T06:56:13;71659.59;;;19.86
64600;BMP280;6553;48.412;9.514;2023-02-12T06:58:42;71665.66;;;19.87
64600;BMP280;6553;48.412;9.514;2023-02-12T07:01:21;71667.25;;;19.88
64600;BMP280;6553;48.412;9.514;2023-02-12T07:03:55;71670.03;;;19.88
64600;BMP280;6553;48.412;9.514;2023-02-12T07:06:22;71660.63;;;19.87
64600;BMP280;6553;48.412;9.514;2023-02-12T07:08:48;71669.50;;;19.88
64600;BMP280;6553;48.412;9.514;2023-02-12T07:11:15;71671.06;;;19.89
64600;BMP280;6553;48.412;9.514;2023-02-12T07:13:43;71660.63;;;19.87
64600;BMP280;6553;48.412;9.514;2023-02-12T07:16:13;71663.84;;;19.90
64600;BMP280;6553;48.412;9.514;2023-02-12T07:18:40;71672.16;;;19.90
64600;BMP280;6553;48.412;9.514;2023-02-12T07:21:07;71663.94;;;19.88
64600;BMP280;6553;48.412;9.514;2023-02-12T07:23:34;71668.44;;;19.87
64600;BMP280;6553;48.412;9.514;2023-02-12T07:26:13;71673.84;;;19.89
64600;BMP280;6553;48.412;9.514;2023-02-12T07:28:39;71668.94;;;19.87
64600;BMP280;6553;48.412;9.514;2023-02-12T07:31:21;71664.59;;;19.86
64600;BMP280;6553;48.412;9.514;2023-02-12T07:33:51;71667.25;;;19.88
64600;BMP280;6553;48.412;9.514;2023-02-12T07:36:19;71663.41;;;19.87
64600;BMP280;6553;48.412;9.514;2023-02-12T07:38:46;71668.31;;;19.89
64600;BMP280;6553;48.412;9.514;2023-02-12T07:41:21;71668.31;;;19.89
64600;BMP280;6553;48.412;9.514;2023-02-12T07:43:53;71660.63;;;19.87
64600;BMP280;6553;48.412;9.514;2023-02-12T07:46:29;71662.75;;;19.89
64600;BMP280;6553;48.412;9.514;2023-02-12T07:48:57;71664.47;;;19.88
64600;BMP280;6553;48.412;9.514;2023-02-12T07:51:25;71668.94;;;19.87
64600;BMP280;6553;48.412;9.514;2023-02-12T07:53:52;71663.94;;;19.88
64600;BMP280;6553;48.412;9.514;2023-02-12T07:56:24;71678.34;;;19.88
64600;BMP280;6553;48.412;9.514;2023-02-12T07:58:55;71664.47;;;19.88
64600;BMP280;6553;48.412;9.514;2023-02-12T08:01:25;71667.38;;;19.86
64600;BMP280;6553;48.412;9.514;2023-02-12T08:03:53;71663.41;;;19.87
64600;BMP280;6553;48.412;9.514;2023-02-12T08:06:24;71661.28;;;19.85
64600;BMP280;6553;48.412;9.514;2023-02-12T08:08:57;71662.47;;;19.84
64600;BMP280;6553;48.412;9.514;2023-02-12T08:11:24;71666.59;;;19.90
64600;BMP280;6553;48.412;9.514;2023-02-12T08:13:51;71660.63;;;19.87
64600;BMP280;6553;48.412;9.514;2023-02-12T08:16:21;71668.84;;;19.90
64600;BMP280;6553;48.412;9.514;2023-02-12T08:18:47;71667.25;;;19.88
64600;BMP280;6553;48.412;9.514;2023-02-12T08:21:20;71661.81;;;19.86
64600;BMP280;6553;48.412;9.514;2023-02-12T08:23:47;71665.53;;;19.89
64600;BMP280;6553;48.412;9.514;2023-02-12T08:26:24;71675.44;;;19.91
64600;BMP280;6553;48.412;9.514;2023-02-12T08:28:55;71671.63;;;19.90
64600;BMP280;6553;48.412;9.514;2023-02-12T08:31:25;71670.44;;;19.91
64600;BMP280;6553;48.412;9.514;2023-02-12T08:33:53;71667.25;;;19.88
64600;BMP280;6553;48.412;9.514;2023-02-12T08:36:35;71663.41;;;19.87
64600;BMP280;6553;48.412;9.514;2023-02-12T08:39:01;71667.78;;;19.89
64600;BMP280;6553;48.412;9.514;2023-02-12T08:41:28;71666.19;;;19.87
64600;BMP280;6553;48.412;9.514;2023-02-12T08:44:00;71666.06;;;19.90
64600;BMP280;6553;48.412;9.514;2023-02-12T08:46:33;71670.44;;;19.91
64600;BMP280;6553;48.412;9.514;2023-02-12T08:49:03;71666.59;;;19.90
64600;BMP280;6553;48.412;9.514;2023-02-12T08:51:32;71669.38;;;19.90
64600;BMP280;6553;48.412;9.514;2023-02-12T08:54:02;71665.53;;;19.89
64600;BMP280;6553;48.412;9.514;2023-02-12T08:56:31;71669.91;;;19.91
64600;BMP280;6553;48.412;9.514;2023-02-12T08:58:58;71668.19;;;19.92
64600;BMP280;6553;48.412;9.514;2023-02-12T09:01:27;71667.66;;;19.91
64600;BMP280;6553;48.412;9.514;2023-02-12T09:03:53;71667.13;;;19.91
64600;BMP280;6553;48.412;9.514;2023-02-12T09:06:22;71673.19;;;19.91
64600;BMP280;6553;48.412;9.514;2023-02-12T09:08:48;71664.88;;;19.91
64600;BMP280;6553;48.412;9.514;2023-02-12T09:11:17;71673.75;;;19.92
64600;BMP280;6553;48.412;9.514;2023-02-12T09:13:46;71671.50;;;19.92
64600;BMP280;6553;48.412;9.514;2023-02-12T09:16:13;71668.19;;;19.92
64600;BMP280;6553;48.412;9.514;2023-02-12T09:18:39;71672.66;;;19.91
64600;BMP280;6553;48.412;9.514;2023-02-12T09:21:10;71673.59;;;19.94
64600;BMP280;6553;48.412;9.514;2023-02-12T09:23:37;71674.78;;;19.93
64600;BMP280;6553;48.412;9.514;2023-02-12T09:26:06;71676.38;;;19.94
64600;BMP280;6553;48.412;9.514;2023-02-12T09:28:32;71671.50;;;19.92
64600;BMP280;6553;48.412;9.514;2023-02-12T09:31:03;71676.38;;;19.94
64600;BMP280;6553;48.412;9.514;2023-02-12T09:33:29;71667.25;;;19.88
64600;BMP280;6553;48.412;9.514;2023-02-12T09:36:00;71665.66;;;19.87
64600;BMP280;6553;48.412;9.514;2023-02-12T09:38:25;71662.47;;;19.84
64600;BMP280;6553;48.412;9.514;2023-02-12T09:44:03;71672.56;;;19.93
64600;BMP280;6553;48.412;9.514;2023-02-12T09:52:30;71674.56;;;19.98
64600;BMP280;6553;48.412;9.514;2023-02-12T09:54:56;71675.31;;;19.93
64600;BMP280;6553;48.412;9.514;2023-02-12T09:57:36;71672.97;;;19.96
64600;BMP280;6553;48.412;9.514;2023-02-12T10:02:38;71675.75;;;19.96
64600;BMP280;6553;48.412;9.514;2023-02-12T10:05:15;71677.44;;;19.95
64600;BMP280;6553;48.412;9.514;2023-02-12T10:10:36;71671.28;;;19.97
64600;BMP280;6553;48.412;9.514;2023-02-12T10:13:16;71675.09;;;19.98
64600;BMP280;6553;48.412;9.514;2023-02-12T10:19:32;71675.75;;;19.96
64600;BMP280;6553;48.412;9.514;2023-02-12T10:25:47;71681.03;;;20.01
64600;BMP280;6553;48.412;9.514;2023-02-12T10:28:19;71678.94;;;19.99
64600;BMP280;6553;48.412;9.514;2023-02-12T10:31:01;71680.00;;;20.00
64600;BMP280;6553;48.412;9.514;2023-02-12T10:33:43;71676.28;;;19.97
64600;BMP280;6553;48.412;9.514;2023-02-12T10:36:43;71675.63;;;19.99
64600;BMP280;6553;48.412;9.514;2023-02-12T10:41:47;71679.56;;;19.97
64600;BMP280;6553;48.412;9.514;2023-02-12T10:44:14;71679.47;;;20.00
64600;BMP280;6553;48.412;9.514;2023-02-12T10:46:40;71679.56;;;19.97
64600;BMP280;6553;48.412;9.514;2023-02-12T10:49:07;71684.47;;;19.99
64600;BMP280;6553;48.412;9.514;2023-02-12T10:54:45;71675.63;;;19.99
64600;BMP280;6553;48.412;9.514;2023-02-12T10:57:30;71675.09;;;19.98
64600;BMP280;6553;48.412;9.514;2023-02-12T11:00:35;71680.00;;;20.00
64600;BMP280;6553;48.412;9.514;2023-02-12T11:03:22;71676.69;;;20.00
64600;BMP280;6553;48.412;9.514;2023-02-12T11:05:49;71678.41;;;19.99
64600;BMP280;6553;48.412;9.514;2023-02-12T11:08:36;71675.75;;;19.96
64600;BMP280;6553;48.412;9.514;2023-02-12T11:14:05;71681.69;;;19.99
64600;BMP280;6553;48.412;9.514;2023-02-12T11:16:36;71685.41;;;20.03
64600;BMP280;6553;48.412;9.514;2023-02-12T11:19:19;71679.34;;;20.02
64600;BMP280;6553;48.412;9.514;2023-02-12T11:21:45;71685.41;;;20.03
64600;BMP280;6553;48.412;9.514;2023-02-12T11:24:32;71682.09;;;20.02
64600;BMP280;6553;48.412;9.514;2023-02-12T11:27:22;71682.09;;;20.02
64600;BMP280;6553;48.412;9.514;2023-02-12T11:30:18;71676.56;;;20.02
64600;BMP280;6553;48.412;9.514;2023-02-12T11:32:45;71683.72;;;20.04
64600;BMP280;6553;48.412;9.514;2023-02-12T11:35:21;71679.88;;;20.03
64600;BMP280;6553;48.412;9.514;2023-02-12T11:37:55;71683.81;;;20.01
64600;BMP280;6553;48.412;9.514;2023-02-12T11:40:27;71677.66;;;20.03
64600;BMP280;6553;48.412;9.514;2023-02-12T11:43:04;71678.28;;;20.01
64600;BMP280;6553;48.412;9.514;2023-02-12T11:45:53;71680.41;;;20.03
64600;BMP280;6553;48.412;9.514;2023-02-12T11:48:32;71677.66;;;20.03
64600;BMP280;6553;48.412;9.514;2023-02-12T11:51:04;71679.34;;;20.02
64600;BMP280;6553;48.412;9.514;2023-02-12T11:53:42;71680.94;;;20.04
64600;BMP280;6553;48.412;9.514;2023-02-12T11:56:13;71680.94;;;20.04
64600;BMP280;6553;48.412;9.514;2023-02-12T11:58:40;71689.13;;;20.06
64600;BMP280;6553;48.412;9.514;2023-02-12T12:01:26;71679.22;;;20.05
64600;BMP280;6553;48.412;9.514;2023-02-12T12:04:07;71684.78;;;20.05
64600;BMP280;6553;48.412;9.514;2023-02-12T12:06:43;71677.66;;;20.03
64600;BMP280;6553;48.412;9.514;2023-02-12T12:09:39;71684.25;;;20.04
64600;BMP280;6553;48.412;9.514;2023-02-12T12:12:43;71685.81;;;20.06
64600;BMP280;6553;48.412;9.514;2023-02-12T12:15:23;71686.38;;;20.06
64600;BMP280;6553;48.412;9.514;2023-02-12T12:18:30;71679.22;;;20.05
64600;BMP280;6553;48.412;9.514;2023-02-12T12:23:58;71685.81;;;20.06
64600;BMP280;6553;48.412;9.514;2023-02-12T12:26:29;71687.03;;;20.04
64600;BMP280;6553;48.412;9.514;2023-02-12T12:31:55;71683.19;;;20.03
64600;BMP280;6553;48.412;9.514;2023-02-12T12:34:26;71689.13;;;20.06
64600;BMP280;6553;48.412;9.514;2023-02-12T12:40:46;71681.34;;;20.07
64600;BMP280;6553;48.412;9.514;2023-02-12T12:46:46;71682.53;;;20.05
64600;BMP280;6553;48.412;9.514;2023-02-12T12:54:57;71682.53;;;20.05
64600;BMP280;6553;48.412;9.514;2023-02-12T13:07:30;71682.00;;;20.05
64600;BMP280;6553;48.412;9.514;2023-02-12T13:13:32;71684.78;;;20.05
64600;BMP280;6553;48.412;9.514;2023-02-12T13:16:31;71687.53;;;20.05
64600;BMP280;6553;48.412;9.514;2023-02-12T13:19:30;71687.66;;;20.02
64600;BMP280;6553;48.412;9.514;2023-02-12T13:22:31;71676.56;;;20.02
64600;BMP280;6553;48.412;9.514;2023-02-12T13:25:04;71683.72;;;20.04
64600;BMP280;6553;48.412;9.514;2023-02-12T13:27:39;71676.03;;;20.02
64600;BMP280;6553;48.412;9.514;2023-02-12T13:30:36;71682.09;;;20.02
64600;BMP280;6553;48.412;9.514;2023-02-12T13:33:15;71682.66;;;20.03
64600;BMP280;6553;48.412;9.514;2023-02-12T13:35:47;71677.09;;;20.03
64600;BMP280;6553;48.412;9.514;2023-02-12T13:38:37;71683.19;;;20.03
64600;BMP280;6553;48.412;9.514;2023-02-12T13:41:08;71687.03;;;20.04
64600;BMP280;6553;48.412;9.514;2023-02-12T13:44:00;71676.56;;;20.02
64600;BMP280;6553;48.412;9.514;2023-02-12T13:46:54;71683.19;;;20.03
64600;BMP280;6553;48.412;9.514;2023-02-12T13:52:05;71678.81;;;20.02
64600;BMP280;6553;48.412;9.514;2023-02-12T13:54:48;71678.19;;;20.04
64600;BMP280;6553;48.412;9.514;2023-02-12T13:57:19;71682.66;;;20.03
64600;BMP280;6553;48.412;9.514;2023-02-12T13:59:48;71683.19;;;20.03
64600;BMP280;6553;48.412;9.514;2023-02-12T14:05:22;71680.41;;;20.03
64600;BMP280;6553;48.412;9.514;2023-02-12T14:07:54;71679.88;;;20.03
64600;BMP280;6553;48.412;9.514;2023-02-12T14:10:40;71679.88;;;20.03
64600;BMP280;6553;48.412;9.514;2023-02-12T14:13:20;71683.19;;;20.03
64600;BMP280;6553;48.412;9.514;2023-02-12T14:15:53;71685.94;;;20.03
64600;BMP280;6553;48.412;9.514;2023-02-12T14:18:35;71683.19;;;20.03
64600;BMP280;6553;48.412;9.514;2023-02-12T14:23:36;71685.41;;;20.03
64600;BMP280;6553;48.412;9.514;2023-02-12T14:26:20;71685.41;;;20.03
64600;BMP280;6553;48.412;9.514;2023-02-12T14:29:05;71682.66;;;20.03
64600;BMP280;6553;48.412;9.514;2023-02-12T14:31:39;71680.53;;;20.01
64600;BMP280;6553;48.412;9.514;2023-02-12T14:36:35;71682.09;;;20.02
64600;BMP280;6553;48.412;9.514;2023-02-12T14:44:57;71675.50;;;20.01
64600;BMP280;6553;48.412;9.514;2023-02-12T14:50:02;71680.00;;;20.00
64600;BMP280;6553;48.412;9.514;2023-02-12T14:52:32;71682.25;;;20.00
64600;BMP280;6553;48.412;9.514;2023-02-12T14:55:20;71679.47;;;20.00
64600;BMP280;6553;48.412;9.514;2023-02-12T14:57:47;71676.16;;;19.99
64600;BMP280;6553;48.412;9.514;2023-02-12T15:05:25;71681.03;;;20.01
64600;BMP280;6553;48.412;9.514;2023-02-12T15:08:00;71679.47;;;20.00
64600;BMP280;6553;48.412;9.514;2023-02-12T15:10:36;71677.22;;;20.00
64600;BMP280;6553;48.412;9.514;2023-02-12T15:13:27;71674.03;;;19.97
64600;BMP280;6553;48.412;9.514;2023-02-12T15:16:01;71680.63;;;19.98
64600;BMP280;6553;48.412;9.514;2023-02-12T15:23:58;71675.63;;;19.99
64600;BMP280;6553;48.412;9.514;2023-02-12T15:26:27;71680.09;;;19.98
64600;BMP280;6553;48.412;9.514;2023-02-12T15:28:54;71676.28;;;19.97
64600;BMP280;6553;48.412;9.514;2023-02-12T15:31:29;71677.84;;;19.98
64600;BMP280;6553;48.412;9.514;2023-02-12T15:33:58;71675.09;;;19.98
64600;BMP280;6553;48.412;9.514;2023-02-12T15:36:29;71675.09;;;19.98
64600;BMP280;6553;48.412;9.514;2023-02-12T15:39:01;71670.72;;;19.97
64600;BMP280;6553;48.412;9.514;2023-02-12T15:43:59;71673.50;;;19.97
64600;BMP280;6553;48.412;9.514;2023-02-12T15:46:26;71675.75;;;19.96
64600;BMP280;6553;48.412;9.514;2023-02-12T15:48:52;71673.59;;;19.94
64600;BMP280;6553;48.412;9.514;2023-02-12T15:51:34;71672.97;;;19.96
64600;BMP280;6553;48.412;9.514;2023-02-12T15:54:05;71676.91;;;19.95
64600;BMP280;6553;48.412;9.514;2023-02-12T15:56:32;71672.03;;;19.93
64600;BMP280;6553;48.412;9.514;2023-02-12T15:59:02;71668.59;;;19.95
64600;BMP280;6553;48.412;9.514;2023-02-12T16:01:32;71673.59;;;19.94
64600;BMP280;6553;48.412;9.514;2023-02-12T16:04:06;71669.78;;;19.93
64600;BMP280;6553;48.412;9.514;2023-02-12T16:06:34;71667.00;;;19.93
64600;BMP280;6553;48.412;9.514;2023-02-12T16:09:07;71672.03;;;19.93
64600;BMP280;6553;48.412;9.514;2023-02-12T16:11:35;71671.50;;;19.92
64600;BMP280;6553;48.412;9.514;2023-02-12T16:14:21;71670.44;;;19.91
64600;BMP280;6553;48.412;9.514;2023-02-12T16:16:50;71670.97;;;19.92
64600;BMP280;6553;48.412;9.514;2023-02-12T16:21:54;71667.66;;;19.91
64600;BMP280;6553;48.412;9.514;2023-02-12T16:24:49;71667.56;;;19.94
64600;BMP280;6553;48.412;9.514;2023-02-12T16:27:20;71670.97;;;19.92
64600;BMP280;6553;48.412;9.514;2023-02-12T16:32:49;71667.13;;;19.91
64600;BMP280;6553;48.412;9.514;2023-02-12T16:37:48;71670.03;;;19.88
64600;BMP280;6553;48.412;9.514;2023-02-12T16:45:34;71666.59;;;19.90
64600;BMP280;6553;48.412;9.514;2023-02-12T16:48:22;71666.59;;;19.90
64600;BMP280;6553;48.412;9.514;2023-02-12T16:50:52;71667.25;;;19.88
64600;BMP280;6553;48.412;9.514;2023-02-12T16:53:32;71666.72;;;19.88
64600;BMP280;6553;48.412;9.514;2023-02-12T16:56:00;71662.34;;;19.86
64600;BMP280;6553;48.412;9.514;2023-02-12T16:58:27;71665.13;;;19.86
64600;BMP280;6553;48.412;9.514;2023-02-12T17:00:55;71664.59;;;19.86
64600;BMP280;6553;48.412;9.514;2023-02-12T17:03:22;71668.53;;;19.84
64600;BMP280;6553;48.412;9.514;2023-02-12T17:05:49;71660.22;;;19.84
64600;BMP280;6553;48.412;9.514;2023-02-12T17:08:20;71664.06;;;19.85
64600;BMP280;6553;48.412;9.514;2023-02-12T17:10:47;71660.22;;;19.84